KPHL

Philadelphia International Airport

Philadelphia, Pennsylvania, USA
METAR KPHL 182254Z 23008KT 10SM FEW045 SCT085 SCT150 OVC250 27/22 A2981 RMK AO2 SLP094 T02670217 $
Observed Flight Rules
Aug-18 @ 22:54 UTC (53 minutes ago) Visual Flight Rules
Wind Visibility Clouds
230° at 8 knots 10 miles
  • Few at 4,500' AGL
  • Scattered at 8,500' AGL
  • Scattered at 15,000' AGL
  • Overcast at 25,000' AGL
Temperatures Readings
Current 27°C / 81°F
Dewpoint 22°C / 72°F
Humidity 74%
Altimeter 29.81" Hg
Pressure 1009.4 hPa
Elevation 18
METAR KPHL 182254Z 23008KT 10SM FEW045 SCT085 SCT150 OVC250 27/22 A2981 RMK AO2 SLP094 T02670217 $
Observed Flight Rules
Aug-18 @ 22:54 UTC
(53 minutes ago)
VFR
Wind Visibility
230° at 8 knots 10 miles
Clouds
  • Few at 4,500' AGL
  • Scattered at 8,500' AGL
  • Scattered at 15,000' AGL
  • Overcast at 25,000' AGL
Temperature Dewpoint
27°C / 81°F 22°C / 72°F
Humidity Altimeter Pressure
74% 29.81" Hg 1009.4 hPa